createdAt,value
2023-02-16T00:01:20.940Z,22.88
2023-02-16T00:03:49.257Z,23.17
2023-02-16T00:06:17.007Z,22.60
2023-02-16T00:08:46.170Z,23.15
2023-02-16T00:11:37.581Z,23.25
2023-02-16T00:14:06.376Z,23.60
2023-02-16T00:16:34.108Z,26.45
2023-02-16T00:19:01.953Z,22.40
2023-02-16T00:21:29.651Z,21.20
2023-02-16T00:23:57.297Z,22.85
2023-02-16T00:26:29.506Z,20.85
2023-02-16T00:28:59.142Z,21.27
2023-02-16T00:31:29.058Z,21.60
2023-02-16T00:33:56.852Z,21.85
2023-02-16T00:36:24.964Z,21.75
2023-02-16T00:38:52.882Z,21.33
2023-02-16T00:41:54.415Z,19.65
2023-02-16T00:44:33.919Z,21.02
2023-02-16T00:47:05.235Z,20.45
2023-02-16T00:49:32.993Z,21.52
2023-02-16T00:52:00.733Z,21.88
2023-02-16T00:54:30.391Z,20.42
2023-02-16T00:56:58.832Z,20.42
2023-02-16T00:59:28.039Z,19.15
2023-02-16T01:01:57.372Z,20.33
2023-02-16T01:04:25.555Z,20.90
2023-02-16T01:07:10.841Z,20.25
2023-02-16T01:09:56.368Z,20.25
2023-02-16T01:12:24.051Z,21.00
2023-02-16T01:14:55.654Z,19.40
2023-02-16T01:17:24.308Z,19.65
2023-02-16T01:19:51.979Z,19.83
2023-02-16T01:22:19.693Z,19.50
2023-02-16T01:24:47.301Z,20.80
2023-02-16T01:27:15.424Z,19.38
2023-02-16T01:29:43.186Z,19.65
2023-02-16T01:32:13.816Z,18.25
2023-02-16T01:34:41.765Z,19.60
2023-02-16T01:37:15.433Z,18.90
2023-02-16T01:39:43.125Z,17.50
2023-02-16T01:42:19.236Z,20.00
2023-02-16T01:44:51.187Z,18.45
2023-02-16T01:47:37.824Z,17.77
2023-02-16T01:50:16.616Z,18.38
2023-02-16T01:52:48.766Z,17.88
2023-02-16T01:55:22.623Z,18.33
2023-02-16T01:57:55.910Z,18.17
2023-02-16T02:00:29.789Z,16.90
2023-02-16T02:03:16.492Z,18.40
2023-02-16T02:05:44.458Z,17.48
2023-02-16T02:08:20.399Z,17.05
2023-02-16T02:11:01.409Z,17.80
2023-02-16T02:13:37.242Z,18.65
2023-02-16T02:16:08.012Z,18.70
2023-02-16T02:18:37.469Z,17.63
2023-02-16T02:21:37.389Z,18.75
2023-02-16T02:24:27.234Z,17.40
2023-02-16T02:27:07.766Z,17.58
2023-02-16T02:32:34.585Z,16.92
2023-02-16T02:35:11.826Z,17.88
2023-02-16T02:38:04.422Z,17.73
2023-02-16T02:40:47.046Z,17.05
2023-02-16T02:43:22.088Z,17.90
2023-02-16T02:45:55.658Z,17.40
2023-02-16T02:48:23.445Z,16.02
2023-02-16T02:51:11.824Z,18.45
2023-02-16T02:53:43.049Z,16.45
2023-02-16T02:56:29.209Z,15.52
2023-02-16T02:59:21.050Z,17.52
2023-02-16T03:01:54.118Z,17.25
2023-02-16T03:04:26.068Z,16.70
2023-02-16T03:06:57.540Z,16.90
2023-02-16T03:09:26.450Z,17.05
2023-02-16T03:12:12.868Z,17.45
2023-02-16T03:14:46.813Z,16.23
2023-02-16T03:17:34.767Z,16.70
2023-02-16T03:20:23.150Z,14.63
2023-02-16T03:23:09.417Z,16.15
2023-02-16T03:25:56.806Z,16.25
2023-02-16T03:28:44.760Z,16.80
2023-02-16T03:31:18.227Z,17.90
2023-02-16T03:33:47.635Z,17.58
2023-02-16T03:36:15.369Z,17.50
2023-02-16T03:38:43.224Z,17.25
2023-02-16T03:41:10.862Z,16.95
2023-02-16T03:43:38.626Z,17.65
2023-02-16T03:46:06.687Z,16.88
2023-02-16T03:48:35.757Z,17.13
2023-02-16T03:51:03.790Z,16.90
2023-02-16T03:53:31.592Z,16.70
2023-02-16T03:55:59.237Z,16.08
2023-02-16T03:58:27.001Z,17.10
2023-02-16T04:00:54.755Z,16.80
2023-02-16T04:03:22.646Z,16.45
2023-02-16T04:05:51.682Z,17.75
2023-02-16T04:08:19.382Z,16.95
2023-02-16T04:10:47.055Z,16.77
2023-02-16T04:13:14.077Z,17.48
2023-02-16T04:15:42.235Z,17.95
2023-02-16T04:18:10.081Z,17.50
2023-02-16T04:20:37.922Z,18.10
2023-02-16T04:23:07.070Z,17.50
2023-02-16T04:25:34.891Z,17.50
2023-02-16T04:28:02.486Z,17.83
2023-02-16T04:30:32.188Z,17.35
2023-02-16T04:33:00.044Z,18.05
2023-02-16T04:35:27.718Z,18.00
2023-02-16T04:37:55.377Z,17.15
2023-02-16T04:40:24.455Z,17.63
2023-02-16T04:42:52.184Z,18.20
2023-02-16T04:45:20.080Z,17.60
2023-02-16T04:47:47.750Z,18.35
2023-02-16T04:50:15.397Z,18.80
2023-02-16T04:52:43.085Z,18.92
2023-02-16T04:55:11.545Z,19.67
2023-02-16T04:57:41.159Z,18.63
2023-02-16T05:00:12.652Z,17.83
2023-02-16T05:02:40.330Z,17.00
2023-02-16T05:05:08.913Z,17.42
2023-02-16T05:07:36.884Z,16.05
2023-02-16T05:10:05.319Z,17.45
2023-02-16T05:12:52.685Z,17.48
2023-02-16T05:15:21.946Z,17.48
2023-02-16T05:17:49.590Z,17.83
2023-02-16T05:20:17.270Z,17.75
2023-02-16T05:22:46.227Z,18.25
2023-02-16T05:25:14.225Z,17.20
2023-02-16T05:27:41.909Z,17.20
2023-02-16T05:30:10.531Z,18.60
2023-02-16T05:32:39.540Z,18.23
2023-02-16T05:35:07.406Z,18.60
2023-02-16T05:37:35.082Z,18.02
2023-02-16T05:40:02.829Z,17.88
2023-02-16T05:42:30.459Z,18.40
2023-02-16T05:44:58.185Z,18.40
2023-02-16T05:47:25.857Z,17.05
2023-02-16T05:49:54.882Z,18.33
2023-02-16T05:52:22.534Z,18.50
2023-02-16T05:54:50.239Z,17.02
2023-02-16T05:57:17.960Z,18.95
2023-02-16T05:59:45.574Z,19.48
2023-02-16T06:02:13.336Z,17.65
2023-02-16T06:04:40.961Z,16.90
2023-02-16T06:07:10.101Z,17.65
2023-02-16T06:09:37.695Z,17.25
2023-02-16T06:12:06.095Z,17.45
2023-02-16T06:14:33.810Z,18.98
2023-02-16T06:17:01.486Z,18.95
2023-02-16T06:19:29.333Z,18.77
2023-02-16T06:21:56.996Z,18.08
2023-02-16T06:24:26.272Z,18.13
2023-02-16T06:26:53.912Z,17.48
2023-02-16T06:29:21.587Z,19.67
2023-02-16T06:31:49.348Z,18.95
2023-02-16T06:34:17.014Z,18.75
2023-02-16T06:36:44.704Z,18.52
2023-02-16T06:39:12.564Z,19.67
2023-02-16T06:41:41.579Z,19.17
2023-02-16T06:44:12.173Z,19.48
2023-02-16T06:46:40.022Z,21.23
2023-02-16T06:49:07.724Z,22.52
2023-02-16T06:51:35.432Z,23.05
2023-02-16T06:54:03.131Z,20.05
2023-02-16T06:56:30.839Z,20.15
2023-02-16T06:58:59.892Z,20.30
2023-02-16T07:01:27.710Z,18.15
2023-02-16T07:03:57.191Z,20.17
2023-02-16T07:06:26.512Z,20.55
2023-02-16T07:08:54.534Z,20.08
2023-02-16T07:11:22.621Z,20.10
2023-02-16T07:13:50.682Z,19.77
2023-02-16T07:16:19.791Z,19.58
2023-02-16T07:18:47.607Z,19.58
2023-02-16T07:21:16.084Z,20.30
2023-02-16T07:23:44.150Z,19.90
2023-02-16T07:26:12.465Z,20.85
2023-02-16T07:28:40.185Z,20.30
2023-02-16T07:31:10.182Z,19.13
2023-02-16T07:33:39.688Z,20.30
2023-02-16T07:36:08.678Z,20.88
2023-02-16T07:38:36.659Z,18.98
2023-02-16T07:41:07.175Z,20.67
2023-02-16T07:43:37.308Z,20.85
2023-02-16T07:46:05.353Z,20.17
2023-02-16T07:48:33.039Z,21.00
2023-02-16T07:51:02.258Z,21.80
2023-02-16T07:53:30.118Z,20.08
2023-02-16T07:55:57.848Z,20.92
2023-02-16T07:58:28.523Z,21.25
2023-02-16T08:00:57.591Z,22.10
2023-02-16T08:03:25.460Z,22.23
2023-02-16T08:05:53.363Z,20.65
2023-02-16T08:08:22.408Z,20.85
2023-02-16T08:10:50.036Z,20.33
2023-02-16T08:13:17.715Z,20.23
2023-02-16T08:15:46.022Z,20.70
2023-02-16T08:18:13.849Z,20.88
2023-02-16T08:21:01.394Z,22.10
2023-02-16T08:23:31.371Z,20.17
2023-02-16T08:25:59.592Z,22.42
2023-02-16T08:28:28.348Z,21.35
2023-02-16T08:30:56.120Z,20.15
2023-02-16T08:33:23.905Z,21.38
2023-02-16T08:35:51.591Z,20.88
2023-02-16T08:38:20.711Z,20.83
2023-02-16T08:40:50.960Z,21.13
2023-02-16T08:43:18.932Z,21.98
2023-02-16T08:45:47.385Z,21.50
2023-02-16T08:48:15.422Z,21.50
2023-02-16T08:50:46.978Z,22.05
2023-02-16T08:53:15.324Z,20.73
2023-02-16T08:55:42.982Z,21.30
2023-02-16T08:58:12.076Z,21.38
2023-02-16T09:00:39.766Z,21.30
2023-02-16T09:03:07.630Z,21.75
2023-02-16T09:05:35.280Z,21.38
2023-02-16T09:08:03.335Z,20.75
2023-02-16T09:10:31.069Z,21.98
2023-02-16T09:12:58.730Z,22.33
2023-02-16T09:15:27.764Z,20.58
2023-02-16T09:17:55.431Z,21.40
2023-02-16T09:20:23.751Z,20.52
2023-02-16T09:22:51.423Z,21.27
2023-02-16T09:25:19.096Z,21.20
2023-02-16T09:27:46.815Z,21.17
2023-02-16T09:30:15.224Z,21.77
2023-02-16T09:32:44.245Z,21.50
2023-02-16T09:35:12.012Z,21.50
2023-02-16T09:37:39.710Z,21.35
2023-02-16T09:40:08.997Z,21.63
2023-02-16T09:42:54.221Z,20.88
2023-02-16T09:45:24.359Z,21.60
2023-02-16T09:47:55.231Z,22.25
2023-02-16T09:50:50.434Z,22.23
2023-02-16T09:53:22.441Z,21.30
2023-02-16T09:55:59.469Z,20.95
2023-02-16T09:58:33.458Z,22.15
2023-02-16T10:01:08.451Z,21.83
2023-02-16T10:03:53.677Z,21.73
2023-02-16T10:06:48.453Z,21.42
2023-02-16T10:09:19.515Z,21.35
2023-02-16T10:11:54.300Z,21.85
2023-02-16T10:14:31.613Z,22.05
2023-02-16T10:17:07.731Z,23.02
2023-02-16T10:19:42.173Z,22.65
2023-02-16T10:22:17.297Z,22.83
2023-02-16T10:24:53.648Z,22.77
2023-02-16T10:27:22.945Z,23.48
2023-02-16T10:29:50.628Z,23.77
2023-02-16T10:32:28.997Z,23.17
2023-02-16T10:35:10.807Z,22.65
2023-02-16T10:37:52.896Z,23.92
2023-02-16T10:40:27.287Z,24.35
2023-02-16T10:42:59.650Z,23.45
2023-02-16T10:45:33.143Z,24.10
2023-02-16T10:48:01.165Z,24.65
2023-02-16T10:50:34.417Z,23.80
2023-02-16T10:53:07.649Z,23.00
2023-02-16T10:55:35.415Z,25.13
2023-02-16T10:58:03.718Z,23.73
2023-02-16T11:00:46.868Z,25.27
2023-02-16T11:03:15.485Z,23.63
2023-02-16T11:05:44.586Z,23.75
2023-02-16T11:08:13.712Z,25.35
2023-02-16T11:10:48.252Z,23.67
2023-02-16T11:13:27.849Z,24.00
2023-02-16T11:15:57.732Z,23.60
2023-02-16T11:18:44.394Z,24.17
2023-02-16T11:21:13.975Z,24.48
2023-02-16T11:23:42.956Z,25.90
2023-02-16T11:26:24.544Z,24.35
2023-02-16T11:28:53.406Z,23.30
2023-02-16T11:31:33.393Z,23.77
2023-02-16T11:34:05.987Z,24.70
2023-02-16T11:36:39.133Z,23.70
2023-02-16T11:39:15.664Z,23.63
2023-02-16T11:41:47.099Z,23.10
2023-02-16T11:44:27.184Z,24.92
2023-02-16T11:46:57.241Z,24.90
2023-02-16T11:49:32.702Z,24.25
2023-02-16T11:52:18.363Z,23.35
2023-02-16T11:54:50.560Z,23.45
2023-02-16T11:57:25.001Z,24.20
2023-02-16T11:59:52.861Z,23.65
2023-02-16T12:02:51.814Z,23.02
2023-02-16T12:05:27.988Z,22.52
2023-02-16T12:08:18.975Z,23.58
2023-02-16T12:11:00.694Z,23.98
2023-02-16T12:13:38.973Z,23.25
2023-02-16T12:16:21.819Z,22.65
2023-02-16T12:19:08.538Z,23.02
2023-02-16T12:21:42.195Z,23.52
2023-02-16T12:24:28.287Z,24.10
2023-02-16T12:26:58.936Z,24.95
2023-02-16T12:32:18.671Z,23.40
2023-02-16T12:35:01.505Z,25.08
2023-02-16T12:37:39.593Z,22.17
2023-02-16T12:40:25.202Z,22.13
2023-02-16T12:43:02.799Z,22.85
2023-02-16T12:45:34.557Z,23.35
2023-02-16T12:48:12.623Z,21.17
2023-02-16T12:50:44.942Z,21.13
2023-02-16T12:53:21.954Z,21.08
2023-02-16T12:55:56.805Z,20.27
2023-02-16T12:58:29.793Z,21.42
2023-02-16T13:01:01.503Z,20.65
2023-02-16T13:03:39.012Z,21.33
2023-02-16T13:06:18.436Z,20.08
2023-02-16T13:08:52.536Z,21.27
2023-02-16T13:11:24.498Z,19.40
2023-02-16T13:13:54.550Z,20.63
2023-02-16T13:16:30.993Z,19.83
2023-02-16T13:18:59.066Z,20.27
2023-02-16T13:22:08.153Z,20.70
2023-02-16T13:24:46.102Z,19.77
2023-02-16T13:27:29.834Z,19.15
2023-02-16T13:30:40.156Z,20.13
2023-02-16T13:33:27.119Z,19.02
2023-02-16T13:36:18.942Z,19.73
2023-02-16T13:39:10.690Z,19.73
2023-02-16T13:42:03.464Z,19.10
2023-02-16T13:44:39.170Z,19.02
2023-02-16T13:47:13.999Z,18.27
2023-02-16T13:49:43.616Z,18.58
2023-02-16T13:52:27.596Z,19.27
2023-02-16T13:54:55.462Z,18.85
2023-02-16T13:58:00.239Z,18.63
2023-02-16T14:00:33.076Z,19.25
2023-02-16T14:03:04.083Z,19.17
2023-02-16T14:05:37.094Z,17.63
2023-02-16T14:08:22.779Z,17.88
2023-02-16T14:11:11.267Z,17.85
2023-02-16T14:13:48.159Z,17.42
2023-02-16T14:16:33.836Z,18.15
2023-02-16T14:19:05.081Z,18.40
2023-02-16T14:21:38.431Z,18.05
2023-02-16T14:24:10.649Z,18.90
2023-02-16T14:26:54.861Z,18.30
2023-02-16T14:29:27.970Z,19.13
2023-02-16T14:32:01.902Z,17.70
2023-02-16T14:34:36.367Z,17.27
2023-02-16T14:37:27.678Z,17.20
2023-02-16T14:40:07.812Z,16.40
2023-02-16T14:45:30.592Z,17.38
2023-02-16T14:48:15.330Z,17.80
2023-02-16T14:50:56.550Z,17.35
2023-02-16T14:54:03.752Z,16.98
2023-02-16T14:56:43.075Z,17.02
2023-02-16T14:59:27.543Z,17.00
2023-02-16T15:01:55.739Z,17.50
2023-02-16T15:04:32.036Z,18.42
2023-02-16T15:07:03.110Z,17.55
2023-02-16T15:09:33.485Z,17.92
2023-02-16T15:12:23.793Z,17.83
2023-02-16T15:14:53.760Z,17.75
2023-02-16T15:17:30.148Z,18.08
2023-02-16T15:20:05.327Z,18.15
2023-02-16T15:22:33.438Z,16.65
2023-02-16T15:25:03.509Z,17.13
2023-02-16T15:27:32.945Z,17.55
2023-02-16T15:30:11.879Z,16.63
2023-02-16T15:32:39.573Z,16.50
2023-02-16T15:35:13.926Z,15.27
2023-02-16T15:37:41.613Z,16.63
2023-02-16T15:40:30.161Z,16.77
2023-02-16T15:43:04.588Z,16.25
2023-02-16T15:45:35.194Z,17.45
2023-02-16T15:50:46.202Z,18.05
2023-02-16T15:55:47.732Z,16.77
2023-02-16T15:58:16.918Z,16.92
2023-02-16T16:00:45.961Z,16.30
2023-02-16T16:03:17.521Z,15.75
2023-02-16T16:05:58.394Z,18.08
2023-02-16T16:08:28.385Z,19.65
2023-02-16T16:10:57.173Z,21.20
2023-02-16T16:13:27.557Z,22.13
2023-02-16T16:16:01.728Z,19.55
2023-02-16T16:18:39.027Z,18.45
2023-02-16T16:21:19.503Z,17.83
2023-02-16T16:24:06.407Z,16.30
2023-02-16T16:26:36.221Z,17.45
2023-02-16T16:29:04.314Z,17.37
2023-02-16T16:31:41.765Z,19.23
2023-02-16T16:34:12.348Z,17.23
2023-02-16T16:36:47.501Z,17.20
2023-02-16T16:39:25.625Z,17.85
2023-02-16T16:42:21.020Z,17.52
2023-02-16T16:45:08.668Z,16.67
2023-02-16T16:47:39.961Z,17.33
2023-02-16T16:50:30.521Z,16.67
2023-02-16T16:52:59.542Z,17.25
2023-02-16T16:55:33.057Z,17.95
2023-02-16T16:58:03.271Z,16.13
2023-02-16T17:00:35.211Z,17.55
2023-02-16T17:03:03.240Z,16.08
2023-02-16T17:05:31.383Z,17.90
2023-02-16T17:08:00.444Z,18.02
2023-02-16T17:10:29.377Z,18.33
2023-02-16T17:13:00.571Z,17.55
2023-02-16T17:15:43.805Z,17.10
2023-02-16T17:18:16.338Z,18.00
2023-02-16T17:20:44.391Z,17.20
2023-02-16T17:23:14.831Z,18.58
2023-02-16T17:25:43.349Z,19.35
2023-02-16T17:28:11.922Z,19.45
2023-02-16T17:30:39.847Z,18.80
2023-02-16T17:33:08.144Z,19.30
2023-02-16T17:35:38.135Z,20.00
2023-02-16T17:38:10.162Z,18.52
2023-02-16T17:40:41.167Z,18.55
2023-02-16T17:43:13.880Z,20.27
2023-02-16T17:45:42.369Z,20.42
2023-02-16T17:48:15.779Z,21.40
2023-02-16T17:50:43.631Z,20.80
2023-02-16T17:53:13.670Z,21.70
2023-02-16T17:55:42.955Z,20.40
2023-02-16T17:58:11.298Z,20.65
2023-02-16T18:00:39.311Z,21.02
2023-02-16T18:03:07.004Z,20.75
2023-02-16T18:05:35.057Z,20.77
2023-02-16T18:08:03.184Z,21.73
2023-02-16T18:10:37.349Z,20.45
2023-02-16T18:13:07.308Z,21.20
2023-02-16T18:15:35.347Z,21.60
2023-02-16T18:18:03.053Z,22.77
2023-02-16T18:20:30.724Z,20.95
2023-02-16T18:22:58.429Z,20.90
2023-02-16T18:25:26.075Z,21.35
2023-02-16T18:27:53.736Z,22.02
2023-02-16T18:30:23.315Z,20.75
2023-02-16T18:32:51.314Z,20.40
2023-02-16T18:35:19.701Z,20.48
2023-02-16T18:37:47.863Z,20.83
2023-02-16T18:40:19.429Z,20.73
2023-02-16T18:42:47.502Z,21.60
2023-02-16T18:45:15.428Z,21.45
2023-02-16T18:47:45.158Z,21.25
2023-02-16T18:50:13.347Z,21.70
2023-02-16T18:52:43.288Z,20.25
2023-02-16T18:55:11.439Z,19.65
2023-02-16T18:57:39.113Z,19.65
2023-02-16T19:00:08.669Z,19.42
2023-02-16T19:02:37.097Z,20.70
2023-02-16T19:05:06.899Z,19.17
2023-02-16T19:07:34.717Z,19.80
2023-02-16T19:10:02.479Z,19.25
2023-02-16T19:12:30.187Z,19.10
2023-02-16T19:14:57.900Z,19.55
2023-02-16T19:17:25.565Z,18.58
2023-02-16T19:19:53.229Z,19.60
2023-02-16T19:22:22.254Z,19.17
2023-02-16T19:24:50.439Z,18.00
2023-02-16T19:27:18.621Z,19.25
2023-02-16T19:29:47.301Z,19.08
2023-02-16T19:32:14.957Z,19.38
2023-02-16T19:34:42.600Z,18.23
2023-02-16T19:37:10.487Z,19.00
2023-02-16T19:39:39.581Z,19.55
2023-02-16T19:42:07.331Z,18.10
2023-02-16T19:44:35.348Z,19.05
2023-02-16T19:47:03.139Z,18.30
2023-02-16T19:49:30.780Z,18.98
2023-02-16T19:52:02.257Z,18.42
2023-02-16T19:54:30.017Z,18.73
2023-02-16T19:56:59.002Z,21.17
2023-02-16T19:59:26.662Z,19.50
2023-02-16T20:01:54.465Z,18.65
2023-02-16T20:04:22.143Z,19.42
2023-02-16T20:06:49.809Z,18.83
2023-02-16T20:09:18.600Z,18.65
2023-02-16T20:11:46.685Z,20.00
2023-02-16T20:14:15.950Z,18.77
2023-02-16T20:16:43.883Z,19.65
2023-02-16T20:19:12.042Z,17.98
2023-02-16T20:21:40.858Z,19.33
2023-02-16T20:24:08.603Z,18.70
2023-02-16T20:26:38.781Z,18.38
2023-02-16T20:29:08.115Z,19.83
2023-02-16T20:31:39.678Z,18.90
2023-02-16T20:34:08.343Z,19.23
2023-02-16T20:36:36.397Z,18.25
2023-02-16T20:39:04.886Z,18.88
2023-02-16T20:41:32.816Z,19.88
2023-02-16T20:44:00.718Z,19.58
2023-02-16T20:46:28.411Z,19.08
2023-02-16T20:48:57.594Z,19.17
2023-02-16T20:51:25.626Z,19.73
2023-02-16T20:53:53.353Z,19.67
2023-02-16T20:56:23.377Z,19.83
2023-02-16T20:58:52.599Z,19.85
2023-02-16T21:01:24.486Z,20.20
2023-02-16T21:03:53.746Z,19.85
2023-02-16T21:06:23.587Z,18.83
2023-02-16T21:08:51.650Z,20.38
2023-02-16T21:11:19.694Z,20.17
2023-02-16T21:13:47.377Z,20.40
2023-02-16T21:16:15.509Z,19.77
2023-02-16T21:18:43.565Z,20.13
2023-02-16T21:21:15.313Z,19.67
2023-02-16T21:23:45.473Z,20.02
2023-02-16T21:26:13.679Z,20.58
2023-02-16T21:28:41.530Z,19.60
2023-02-16T21:31:11.948Z,20.45
2023-02-16T21:33:39.863Z,20.63
2023-02-16T21:36:09.620Z,20.02
2023-02-16T21:38:38.826Z,19.00
2023-02-16T21:41:26.178Z,19.42
2023-02-16T21:43:55.222Z,20.60
2023-02-16T21:46:23.568Z,20.63
2023-02-16T21:48:50.417Z,21.70
2023-02-16T21:51:20.528Z,20.85
2023-02-16T21:53:48.834Z,20.50
2023-02-16T21:56:34.976Z,20.63
2023-02-16T21:59:05.072Z,20.23
2023-02-16T22:01:35.820Z,20.08
2023-02-16T22:04:04.727Z,21.10
2023-02-16T22:06:34.799Z,19.80
2023-02-16T22:09:06.390Z,20.45
2023-02-16T22:11:35.553Z,19.73
2023-02-16T22:14:03.503Z,20.67
2023-02-16T22:16:33.604Z,22.17
2023-02-16T22:19:07.079Z,20.92
2023-02-16T22:21:36.965Z,21.38
2023-02-16T22:24:05.236Z,20.55
2023-02-16T22:26:36.438Z,21.67
2023-02-16T22:29:05.924Z,20.88
2023-02-16T22:31:34.289Z,21.42
2023-02-16T22:34:03.407Z,20.77
2023-02-16T22:36:31.584Z,19.95
2023-02-16T22:38:59.369Z,20.48
2023-02-16T22:41:27.155Z,22.05
2023-02-16T22:43:57.152Z,21.13
2023-02-16T22:46:25.736Z,21.42
2023-02-16T22:48:53.973Z,21.65
2023-02-16T22:51:22.599Z,20.17
2023-02-16T22:53:50.289Z,21.35
2023-02-16T22:56:19.322Z,20.45
2023-02-16T22:58:47.716Z,22.02
2023-02-16T23:01:19.183Z,21.65
2023-02-16T23:03:48.243Z,21.73
2023-02-16T23:06:18.560Z,21.92
2023-02-16T23:08:47.512Z,21.75
2023-02-16T23:11:15.173Z,22.98
2023-02-16T23:13:42.912Z,21.33
2023-02-16T23:16:13.717Z,22.58
2023-02-16T23:18:43.580Z,23.08
2023-02-16T23:21:17.122Z,22.30
2023-02-16T23:23:45.914Z,23.50
2023-02-16T23:26:15.712Z,23.58
2023-02-16T23:28:44.339Z,22.60
2023-02-16T23:31:13.475Z,23.52
2023-02-16T23:33:42.623Z,23.63
2023-02-16T23:36:10.725Z,23.65
2023-02-16T23:38:38.707Z,22.75
2023-02-16T23:41:08.109Z,24.73
2023-02-16T23:43:36.544Z,22.38
2023-02-16T23:46:05.413Z,23.05
2023-02-16T23:48:33.780Z,23.58
2023-02-16T23:51:03.481Z,23.90
2023-02-16T23:53:31.228Z,22.90
2023-02-16T23:55:59.945Z,23.92
2023-02-16T23:58:28.433Z,23.20
